Dawson Creek Airport
CYDQ : now visible

Airfield :











YOU CAN JOIN US ON...

 
LOGIN :

Register | Disclaimer

   EN    FR    IT 

 









Legend :    VFR   Marginal VFR   IFR   Intensive IFR   Very Intensive IFR
Visi :
Ceiling :
>= 8 km
>= 3000ft
5 to 8 km
1000 to 3000 ft
1500m to 5 km
500 to 1000 ft
800 to 1500m
200 to 500 ft
< 800m
< 200 ft
Symbols :   Thunderstorms  Fog  Heavy snow  Heavy precipitations  Wind > 20 kt






- Airport Elevation : 2148 ft
- IATA code : YDQ


CYDQ - Dawson Creek

CURRENT METAR :
  • 161300Z AUTO 19002KT 9SM CLR M19/M21 A2992 RMK SLP189

EXPIRED METARs :
  • 161244Z AUTO 00000KT 9SM CLR M19/M21 A2992 RMK SLP188
  • 161234Z AUTO 27003KT 9SM -SN CLR M21/M23 A2993 RMK SLP191
  • 161200Z AUTO VRB02KT 9SM CLR M21/M23 A2993 RMK SLP192
  • 161100Z AUTO VRB02KT 9SM CLR M19/M21 A2994 RMK SLP193

TAF TAF CYDQ
Valid from the 16 at 13:00 until the 17 at 01:00 UTC


161238Z 1613/1701 VRB03KT P6SM BKN120
FM161500 20005KT P6SM OVC060
TEMPO 1615/1619 2SM -SN OVC020
FM161900 VRB03KT P6SM BKN060 RMK FCST BASED ON AUTO OBS. NXT FCST BY 161900Z



MET'MAP, your aeronautical weather chart ! - Copyright ORBIFLY December 2007 - Disclaimer

ORBIFLY MET'MAP TEAM :

Programming & Development : Alexandra Zaïnal
Concept & original design : Baudouin d'Aumeries
Assistance for programming : Marc-Olivier Méhu
Technical & hardware support : Manuel Goepfert

Contact : metmap@orbifly.com




SOURCES & CREDITS :

   NOAA       Earth
Advisory